createdAt,value
2018-05-18T00:02:14.870Z,3.47
2018-05-18T00:04:41.582Z,3.60
2018-05-18T00:07:07.776Z,3.30
2018-05-18T00:09:33.967Z,3.13
2018-05-18T00:12:00.874Z,3.30
2018-05-18T00:14:27.055Z,3.97
2018-05-18T00:16:53.257Z,3.40
2018-05-18T00:19:19.476Z,3.23
2018-05-18T00:21:45.647Z,3.70
2018-05-18T00:24:11.827Z,3.33
2018-05-18T00:26:38.000Z,3.53
2018-05-18T00:29:04.205Z,3.20
2018-05-18T00:31:30.416Z,3.03
2018-05-18T00:33:56.561Z,3.40
2018-05-18T00:36:22.748Z,3.17
2018-05-18T00:38:48.978Z,3.07
2018-05-18T00:41:15.897Z,3.00
2018-05-18T00:43:42.046Z,2.80
2018-05-18T00:46:08.255Z,3.00
2018-05-18T00:48:34.440Z,3.33
2018-05-18T00:51:00.619Z,3.17
2018-05-18T00:53:26.785Z,3.77
2018-05-18T00:55:53.045Z,3.30
2018-05-18T00:58:19.116Z,3.10
2018-05-18T01:00:45.277Z,3.50
2018-05-18T01:03:11.461Z,3.63
2018-05-18T01:05:37.618Z,3.37
2018-05-18T01:08:03.855Z,3.20
2018-05-18T01:10:30.011Z,3.70
2018-05-18T01:12:56.915Z,3.43
2018-05-18T01:15:23.107Z,3.30
2018-05-18T01:17:49.301Z,3.20
2018-05-18T01:20:15.499Z,2.90
2018-05-18T01:22:41.691Z,3.70
2018-05-18T01:25:07.868Z,3.60
2018-05-18T01:27:34.041Z,3.40
2018-05-18T01:30:00.220Z,3.47
2018-05-18T01:32:26.355Z,3.90
2018-05-18T01:34:52.599Z,3.30
2018-05-18T01:37:18.771Z,3.50
2018-05-18T01:39:44.946Z,3.37
2018-05-18T01:42:11.118Z,3.70
2018-05-18T01:44:37.279Z,3.27
2018-05-18T01:47:03.489Z,3.43
2018-05-18T01:49:29.692Z,3.37
2018-05-18T01:51:55.879Z,3.80
2018-05-18T01:57:14.847Z,3.40
2018-05-18T01:59:41.031Z,3.10
2018-05-18T02:02:07.210Z,4.00
2018-05-18T02:04:33.411Z,3.40
2018-05-18T02:06:59.611Z,3.20
2018-05-18T02:09:25.795Z,3.63
2018-05-18T02:11:51.986Z,3.00
2018-05-18T02:14:18.161Z,3.73
2018-05-18T02:16:44.323Z,3.30
2018-05-18T02:19:10.471Z,3.70
2018-05-18T02:21:36.662Z,3.33
2018-05-18T02:24:02.817Z,3.20
2018-05-18T02:26:29.753Z,3.53
2018-05-18T02:28:55.921Z,3.40
2018-05-18T02:31:22.104Z,3.43
2018-05-18T02:33:48.251Z,3.47
2018-05-18T02:36:14.448Z,4.23
2018-05-18T02:38:40.606Z,3.30
2018-05-18T02:41:07.540Z,4.10
2018-05-18T02:43:33.723Z,3.57
2018-05-18T02:46:00.631Z,3.70
2018-05-18T02:48:26.782Z,3.47
2018-05-18T02:50:52.934Z,3.67
2018-05-18T02:53:19.082Z,3.40
2018-05-18T02:55:45.276Z,3.40
2018-05-18T02:58:11.435Z,3.90
2018-05-18T03:00:38.354Z,3.83
2018-05-18T03:03:04.523Z,3.67
2018-05-18T03:05:30.704Z,3.73
2018-05-18T03:07:56.885Z,3.70
2018-05-18T03:10:23.838Z,3.53
2018-05-18T03:12:49.996Z,3.70
2018-05-18T03:15:16.202Z,3.47
2018-05-18T03:17:43.114Z,3.90
2018-05-18T03:20:09.282Z,4.20
2018-05-18T03:22:35.451Z,3.50
2018-05-18T03:25:01.612Z,3.67
2018-05-18T03:27:27.808Z,3.83
2018-05-18T03:29:54.007Z,3.70
2018-05-18T03:32:20.911Z,3.90
2018-05-18T03:34:47.080Z,3.90
2018-05-18T03:37:14.003Z,3.73
2018-05-18T03:39:40.187Z,3.77
2018-05-18T03:42:06.359Z,3.57
2018-05-18T03:44:32.514Z,3.80
2018-05-18T03:46:58.718Z,3.70
2018-05-18T03:49:24.877Z,3.83
2018-05-18T03:51:51.058Z,3.30
2018-05-18T03:54:17.254Z,4.00
2018-05-18T03:56:43.459Z,3.73
2018-05-18T03:59:09.617Z,3.70
2018-05-18T04:01:54.178Z,3.83
2018-05-18T04:07:46.276Z,3.33
2018-05-18T04:10:12.454Z,3.83
2018-05-18T04:12:38.630Z,4.10
2018-05-18T04:15:05.078Z,3.83
2018-05-18T04:17:31.232Z,4.17
2018-05-18T04:19:57.506Z,4.33
2018-05-18T04:22:23.686Z,4.00
2018-05-18T04:24:49.846Z,4.03
2018-05-18T04:27:16.739Z,4.30
2018-05-18T04:29:42.897Z,3.90
2018-05-18T04:32:09.072Z,4.20
2018-05-18T04:34:35.229Z,4.43
2018-05-18T04:37:01.463Z,3.70
2018-05-18T04:39:27.647Z,4.73
2018-05-18T04:41:54.547Z,4.23
2018-05-18T04:44:20.733Z,3.93
2018-05-18T04:46:47.697Z,4.73
2018-05-18T04:49:13.867Z,4.93
2018-05-18T04:54:32.828Z,4.40
2018-05-18T04:56:58.991Z,4.60
2018-05-18T04:59:25.172Z,4.33
2018-05-18T05:01:51.393Z,4.90
2018-05-18T05:04:17.593Z,4.77
2018-05-18T05:06:43.775Z,4.33
2018-05-18T05:09:09.945Z,4.27
2018-05-18T05:11:36.093Z,4.63
2018-05-18T05:14:02.287Z,5.10
2018-05-18T05:16:28.455Z,3.93
2018-05-18T05:18:55.071Z,5.50
2018-05-18T05:21:21.243Z,4.43
2018-05-18T05:23:47.477Z,4.47
2018-05-18T05:26:13.571Z,4.03
2018-05-18T05:28:39.758Z,4.57
2018-05-18T05:31:06.676Z,5.33
2018-05-18T05:33:32.886Z,4.90
2018-05-18T05:35:59.076Z,4.37
2018-05-18T05:38:25.321Z,4.97
2018-05-18T05:40:51.518Z,5.07
2018-05-18T05:43:17.690Z,4.40
2018-05-18T05:45:44.635Z,5.20
2018-05-18T05:48:10.866Z,4.73
2018-05-18T05:50:37.084Z,4.77
2018-05-18T05:53:03.282Z,5.03
2018-05-18T05:55:29.447Z,4.53
2018-05-18T05:57:55.661Z,4.93
2018-05-18T06:00:21.836Z,4.83
2018-05-18T06:02:48.746Z,5.00
2018-05-18T06:05:14.981Z,4.90
2018-05-18T06:07:41.132Z,4.93
2018-05-18T06:10:07.366Z,5.07
2018-05-18T06:12:33.548Z,4.90
2018-05-18T06:14:59.747Z,5.20
2018-05-18T06:17:25.917Z,4.80
2018-05-18T06:19:52.143Z,4.23
2018-05-18T06:22:18.327Z,4.87
2018-05-18T06:24:44.503Z,4.40
2018-05-18T06:27:10.712Z,5.13
2018-05-18T06:29:36.880Z,4.33
2018-05-18T06:32:03.050Z,5.20
2018-05-18T06:34:29.236Z,4.53
2018-05-18T06:36:55.423Z,4.70
2018-05-18T06:39:21.582Z,5.43
2018-05-18T06:41:47.758Z,4.70
2018-05-18T06:44:13.928Z,4.90
2018-05-18T06:46:40.132Z,5.03
2018-05-18T06:49:06.379Z,4.83
2018-05-18T06:51:32.558Z,4.80
2018-05-18T06:53:58.744Z,4.77
2018-05-18T06:56:24.930Z,5.00
2018-05-18T06:58:51.178Z,4.27
2018-05-18T07:01:17.298Z,5.10
2018-05-18T07:03:43.550Z,4.80
2018-05-18T07:06:09.705Z,5.07
2018-05-18T07:08:35.881Z,5.13
2018-05-18T07:11:02.074Z,5.23
2018-05-18T07:13:28.274Z,5.00
2018-05-18T07:15:54.433Z,5.17
2018-05-18T07:18:20.631Z,5.10
2018-05-18T07:20:46.778Z,5.00
2018-05-18T07:23:12.961Z,4.87
2018-05-18T07:25:39.152Z,5.03
2018-05-18T07:28:05.340Z,4.97
2018-05-18T07:30:33.524Z,5.33
2018-05-18T07:32:59.708Z,4.13
2018-05-18T07:35:25.891Z,5.03
2018-05-18T07:37:52.794Z,4.97
2018-05-18T07:40:18.990Z,4.93
2018-05-18T07:42:45.151Z,4.47
2018-05-18T07:45:11.302Z,4.57
2018-05-18T07:47:37.481Z,4.73
2018-05-18T07:50:03.731Z,4.97
2018-05-18T07:52:29.912Z,4.80
2018-05-18T07:54:56.127Z,4.20
2018-05-18T07:57:22.309Z,4.97
2018-05-18T07:59:48.514Z,5.40
2018-05-18T08:02:14.790Z,5.20
2018-05-18T08:04:41.035Z,4.87
2018-05-18T08:07:07.262Z,4.83
2018-05-18T08:09:33.462Z,4.30
2018-05-18T08:11:59.647Z,4.07
2018-05-18T08:14:25.845Z,4.70
2018-05-18T08:16:52.786Z,4.57
2018-05-18T08:19:18.962Z,4.77
2018-05-18T08:21:45.134Z,4.37
2018-05-18T08:24:12.084Z,4.20
2018-05-18T08:26:38.213Z,4.17
2018-05-18T08:29:22.991Z,4.13
2018-05-18T08:31:49.167Z,4.90
2018-05-18T08:34:15.351Z,4.87
2018-05-18T08:36:41.876Z,4.27
2018-05-18T08:39:08.912Z,4.07
2018-05-18T08:41:35.025Z,4.43
2018-05-18T08:44:01.242Z,4.40
2018-05-18T08:46:27.428Z,3.83
2018-05-18T08:48:54.349Z,3.77
2018-05-18T08:51:20.595Z,4.07
2018-05-18T08:53:46.787Z,4.50
2018-05-18T08:56:12.966Z,3.63
2018-05-18T08:58:39.172Z,4.10
2018-05-18T09:01:06.127Z,3.77
2018-05-18T09:03:32.370Z,4.40
2018-05-18T09:05:58.541Z,4.20
2018-05-18T09:08:24.747Z,4.00
2018-05-18T09:10:51.741Z,4.40
2018-05-18T09:13:18.382Z,3.60
2018-05-18T09:15:44.614Z,4.40
2018-05-18T09:18:16.779Z,4.07
2018-05-18T09:20:42.955Z,4.37
2018-05-18T09:23:09.130Z,4.10
2018-05-18T09:25:35.296Z,4.13
2018-05-18T09:28:01.467Z,4.57
2018-05-18T09:30:28.306Z,4.13
2018-05-18T09:32:54.469Z,4.60
2018-05-18T09:35:20.647Z,4.73
2018-05-18T09:37:46.828Z,4.40
2018-05-18T09:40:13.752Z,5.47
2018-05-18T09:42:39.898Z,4.40
2018-05-18T09:45:06.141Z,4.70
2018-05-18T09:47:32.234Z,4.30
2018-05-18T09:49:58.418Z,4.27
2018-05-18T09:52:25.331Z,4.40
2018-05-18T09:54:51.790Z,4.43
2018-05-18T09:57:17.701Z,4.57
2018-05-18T09:59:43.957Z,4.37
2018-05-18T10:02:10.134Z,4.63
2018-05-18T10:04:37.084Z,4.43
2018-05-18T10:07:03.339Z,4.57
2018-05-18T10:09:29.546Z,4.37
2018-05-18T10:11:55.852Z,4.60
2018-05-18T10:14:22.053Z,5.00
2018-05-18T10:16:48.235Z,5.30
2018-05-18T10:19:14.456Z,4.53
2018-05-18T10:21:40.712Z,4.57
2018-05-18T10:24:06.910Z,4.93
2018-05-18T10:26:33.124Z,4.73
2018-05-18T10:29:00.118Z,4.07
2018-05-18T10:31:26.374Z,4.50
2018-05-18T10:33:52.591Z,5.23
2018-05-18T10:36:18.841Z,5.10
2018-05-18T10:38:45.034Z,5.73
2018-05-18T10:41:11.197Z,4.83
2018-05-18T10:43:37.413Z,5.17
2018-05-18T10:46:03.599Z,5.37
2018-05-18T10:48:29.810Z,5.00
2018-05-18T10:50:56.030Z,4.90
2018-05-18T10:53:22.217Z,4.87
2018-05-18T10:55:48.406Z,5.23
2018-05-18T10:58:14.629Z,5.53
2018-05-18T11:00:40.843Z,5.40
2018-05-18T11:03:07.761Z,4.80
2018-05-18T11:05:33.950Z,4.97
2018-05-18T11:08:00.951Z,5.50
2018-05-18T11:10:27.210Z,4.90
2018-05-18T11:12:54.141Z,5.00
2018-05-18T11:15:20.303Z,4.90
2018-05-18T11:17:46.476Z,5.23
2018-05-18T11:20:12.634Z,5.43
2018-05-18T11:22:38.800Z,5.17
2018-05-18T11:25:04.983Z,6.10
2018-05-18T11:27:31.247Z,5.20
2018-05-18T11:29:57.488Z,5.50
2018-05-18T11:32:24.382Z,5.47
2018-05-18T11:34:50.922Z,5.10
2018-05-18T11:37:17.123Z,5.17
2018-05-18T11:39:44.411Z,5.43
2018-05-18T11:42:11.091Z,4.47
2018-05-18T11:44:37.432Z,5.37
2018-05-18T11:47:03.613Z,5.50
2018-05-18T11:49:29.793Z,5.33
2018-05-18T11:51:56.040Z,5.93
2018-05-18T11:54:22.973Z,5.70
2018-05-18T11:56:49.201Z,6.23
2018-05-18T11:59:15.378Z,5.33
2018-05-18T12:01:41.557Z,5.77
2018-05-18T12:04:07.711Z,5.30
2018-05-18T12:06:33.949Z,5.03
2018-05-18T12:09:00.163Z,5.80
2018-05-18T12:11:26.362Z,5.13
2018-05-18T12:13:53.279Z,5.00
2018-05-18T12:16:19.509Z,5.13
2018-05-18T12:18:47.182Z,4.97
2018-05-18T12:21:13.403Z,5.60
2018-05-18T12:23:39.580Z,5.70
2018-05-18T12:26:05.804Z,5.07
2018-05-18T12:28:32.000Z,5.40
2018-05-18T12:30:58.185Z,5.60
2018-05-18T12:33:24.356Z,5.70
2018-05-18T12:35:50.506Z,5.00
2018-05-18T12:38:16.915Z,6.53
2018-05-18T12:40:42.871Z,5.87
2018-05-18T12:43:09.079Z,4.97
2018-05-18T12:45:35.321Z,5.47
2018-05-18T12:48:02.283Z,5.47
2018-05-18T12:50:29.208Z,5.60
2018-05-18T12:52:55.412Z,5.63
2018-05-18T12:55:21.581Z,5.17
2018-05-18T12:57:47.767Z,5.27
2018-05-18T13:00:13.907Z,5.83
2018-05-18T13:02:40.069Z,5.97
2018-05-18T13:05:06.241Z,5.10
2018-05-18T13:07:32.402Z,5.53
2018-05-18T13:09:58.604Z,5.53
2018-05-18T13:12:24.788Z,5.57
2018-05-18T13:14:50.974Z,5.03
2018-05-18T13:17:17.874Z,5.70
2018-05-18T13:19:44.059Z,4.80
2018-05-18T13:22:10.226Z,5.00
2018-05-18T13:24:36.396Z,4.30
2018-05-18T13:27:02.634Z,5.00
2018-05-18T13:29:28.755Z,5.67
2018-05-18T13:31:54.913Z,5.90
2018-05-18T13:34:21.059Z,5.20
2018-05-18T13:36:47.270Z,5.47
2018-05-18T13:39:13.430Z,5.37
2018-05-18T13:41:39.621Z,5.57
2018-05-18T13:44:06.044Z,4.93
2018-05-18T13:46:32.996Z,5.70
2018-05-18T13:48:59.349Z,5.97
2018-05-18T13:51:25.506Z,4.73
2018-05-18T13:53:52.218Z,5.53
2018-05-18T13:56:18.379Z,4.40
2018-05-18T13:58:44.588Z,4.83
2018-05-18T14:01:10.771Z,4.70
2018-05-18T14:03:36.931Z,4.83
2018-05-18T14:06:03.128Z,4.87
2018-05-18T14:08:29.303Z,5.47
2018-05-18T14:10:55.498Z,5.20
2018-05-18T14:13:21.672Z,4.40
2018-05-18T14:15:47.844Z,5.30
2018-05-18T14:18:13.995Z,4.73
2018-05-18T14:20:40.174Z,4.90
2018-05-18T14:23:06.346Z,4.77
2018-05-18T14:25:33.247Z,5.17
2018-05-18T14:27:59.403Z,4.57
2018-05-18T14:30:25.798Z,4.37
2018-05-18T14:32:52.056Z,4.43
2018-05-18T14:35:18.220Z,5.60
2018-05-18T14:37:45.173Z,4.80
2018-05-18T14:40:11.318Z,5.40
2018-05-18T14:42:37.491Z,4.97
2018-05-18T14:45:03.683Z,5.30
2018-05-18T14:47:30.598Z,4.67
2018-05-18T14:49:56.775Z,5.87
2018-05-18T14:52:22.966Z,5.23
2018-05-18T14:54:49.115Z,4.93
2018-05-18T14:57:16.012Z,4.60
2018-05-18T14:59:42.150Z,4.23
2018-05-18T15:02:08.310Z,4.40
2018-05-18T15:04:34.513Z,5.30
2018-05-18T15:07:00.663Z,4.13
2018-05-18T15:09:26.828Z,4.80
2018-05-18T15:11:53.725Z,4.73
2018-05-18T15:14:19.915Z,5.13
2018-05-18T15:16:46.108Z,4.90
2018-05-18T15:19:12.612Z,4.73
2018-05-18T15:21:38.831Z,4.77
2018-05-18T15:24:05.019Z,4.43
2018-05-18T15:26:31.196Z,4.73
2018-05-18T15:28:57.466Z,4.40
2018-05-18T15:31:23.690Z,5.00
2018-05-18T15:33:49.864Z,4.77
2018-05-18T15:36:16.086Z,6.63
2018-05-18T15:38:42.303Z,7.93
2018-05-18T15:41:08.478Z,4.93
2018-05-18T15:43:35.377Z,5.03
2018-05-18T15:46:01.671Z,4.53
2018-05-18T15:48:27.869Z,4.47
2018-05-18T15:50:54.121Z,4.13
2018-05-18T15:53:21.084Z,4.70
2018-05-18T15:55:47.278Z,5.03
2018-05-18T15:58:13.463Z,4.20
2018-05-18T16:00:39.681Z,4.97
2018-05-18T16:03:05.841Z,5.40
2018-05-18T16:05:31.992Z,4.03
2018-05-18T16:07:58.144Z,4.30
2018-05-18T16:10:24.317Z,4.50
2018-05-18T16:12:50.501Z,4.57
2018-05-18T16:15:16.687Z,4.53
2018-05-18T16:17:43.611Z,4.67
2018-05-18T16:20:09.778Z,3.93
2018-05-18T16:22:35.941Z,3.87
2018-05-18T16:25:02.135Z,4.63
2018-05-18T16:27:28.334Z,5.30
2018-05-18T16:29:54.477Z,3.93
2018-05-18T16:32:20.622Z,3.80
2018-05-18T16:34:46.763Z,4.00
2018-05-18T16:37:12.901Z,4.07
2018-05-18T16:39:39.040Z,3.73
2018-05-18T16:42:05.251Z,5.03
2018-05-18T16:44:32.148Z,4.47
2018-05-18T16:46:59.036Z,4.23
2018-05-18T16:49:25.202Z,4.27
2018-05-18T16:51:51.342Z,4.07
2018-05-18T16:54:17.511Z,4.27
2018-05-18T16:56:43.668Z,3.70
2018-05-18T16:59:09.822Z,3.70
2018-05-18T17:01:35.971Z,4.00
2018-05-18T17:04:02.127Z,4.20
2018-05-18T17:06:43.274Z,4.47
2018-05-18T17:09:10.136Z,4.00
2018-05-18T17:11:36.322Z,3.67
2018-05-18T17:14:03.312Z,4.20
2018-05-18T17:16:29.396Z,4.07
2018-05-18T17:18:56.487Z,3.73
2018-05-18T17:21:22.616Z,3.97
2018-05-18T17:23:48.808Z,4.20
2018-05-18T17:26:15.030Z,3.77
2018-05-18T17:28:41.230Z,3.83
2018-05-18T17:31:08.291Z,4.10
2018-05-18T17:33:35.259Z,3.53
2018-05-18T17:36:02.211Z,3.80
2018-05-18T17:38:28.430Z,4.20
2018-05-18T17:40:54.714Z,3.53
2018-05-18T17:43:20.850Z,3.63
2018-05-18T17:45:47.081Z,3.97
2018-05-18T17:48:13.292Z,4.03
2018-05-18T17:50:39.445Z,4.20
2018-05-18T17:53:05.590Z,3.80
2018-05-18T17:55:31.738Z,3.77
2018-05-18T17:57:57.888Z,3.33
2018-05-18T18:00:24.181Z,3.83
2018-05-18T18:02:50.394Z,3.40
2018-05-18T18:05:16.613Z,3.30
2018-05-18T18:07:42.810Z,3.93
2018-05-18T18:10:09.108Z,3.80
2018-05-18T18:12:35.241Z,3.73
2018-05-18T18:15:01.413Z,3.63
2018-05-18T18:17:28.290Z,3.27
2018-05-18T18:19:54.456Z,3.83
2018-05-18T18:22:22.081Z,3.50
2018-05-18T18:24:48.270Z,3.20
2018-05-18T18:27:15.880Z,3.50
2018-05-18T18:29:42.037Z,3.60
2018-05-18T18:32:08.194Z,4.00
2018-05-18T18:34:34.372Z,3.73
2018-05-18T18:37:00.507Z,3.20
2018-05-18T18:39:26.677Z,3.67
2018-05-18T18:41:52.841Z,3.73
2018-05-18T18:44:19.742Z,3.87
2018-05-18T18:46:47.413Z,3.40
2018-05-18T18:49:13.578Z,3.40
2018-05-18T18:51:41.209Z,3.60
2018-05-18T18:54:07.384Z,4.43
2018-05-18T18:56:34.372Z,4.37
2018-05-18T18:59:00.526Z,4.70
2018-05-18T19:01:28.264Z,5.00
2018-05-18T19:03:54.406Z,6.37
2018-05-18T19:06:20.635Z,6.00
2018-05-18T19:08:46.804Z,6.13
2018-05-18T19:11:13.033Z,6.47
2018-05-18T19:13:39.245Z,5.63
2018-05-18T19:16:05.481Z,5.70
2018-05-18T19:18:31.643Z,5.50
2018-05-18T19:20:57.786Z,5.70
2018-05-18T19:23:24.705Z,5.53
2018-05-18T19:25:50.856Z,5.70
2018-05-18T19:28:17.116Z,5.23
2018-05-18T19:30:43.268Z,5.10
2018-05-18T19:33:09.440Z,4.60
2018-05-18T19:35:35.649Z,4.77
2018-05-18T19:38:01.821Z,4.23
2018-05-18T19:40:28.012Z,4.33
2018-05-18T19:42:54.715Z,4.53
2018-05-18T19:45:20.892Z,4.57
2018-05-18T19:47:47.067Z,3.97
2018-05-18T19:50:13.260Z,4.73
2018-05-18T19:52:39.436Z,4.40
2018-05-18T19:55:05.666Z,3.83
2018-05-18T19:57:31.897Z,3.93
2018-05-18T19:59:58.057Z,4.00
2018-05-18T20:02:24.280Z,3.90
2018-05-18T20:04:50.422Z,3.40
2018-05-18T20:07:16.599Z,4.17
2018-05-18T20:09:42.796Z,3.90
2018-05-18T20:12:09.014Z,3.90
2018-05-18T20:14:35.188Z,4.13
2018-05-18T20:17:01.343Z,3.90
2018-05-18T20:19:27.508Z,4.07
2018-05-18T20:21:53.918Z,3.93
2018-05-18T20:24:20.276Z,4.10
2018-05-18T20:26:46.608Z,3.20
2018-05-18T20:29:12.788Z,3.07
2018-05-18T20:31:38.935Z,4.80
2018-05-18T20:34:05.136Z,3.93
2018-05-18T20:36:31.511Z,3.63
2018-05-18T20:38:57.735Z,3.70
2018-05-18T20:41:23.903Z,4.00
2018-05-18T20:43:50.082Z,3.63
2018-05-18T20:46:16.236Z,3.90
2018-05-18T20:48:42.459Z,4.10
2018-05-18T20:51:08.620Z,3.93
2018-05-18T20:53:34.812Z,5.63
2018-05-18T20:56:00.974Z,5.20
2018-05-18T20:58:27.209Z,5.00
2018-05-18T21:00:53.374Z,4.63
2018-05-18T21:03:20.371Z,4.80
2018-05-18T21:05:46.603Z,4.67
2018-05-18T21:08:12.760Z,4.43
2018-05-18T21:10:39.031Z,4.30
2018-05-18T21:13:05.852Z,4.13
2018-05-18T21:15:32.075Z,3.83
2018-05-18T21:17:58.222Z,3.97
2018-05-18T21:20:24.380Z,4.00
2018-05-18T21:22:50.639Z,3.83
2018-05-18T21:25:16.792Z,4.33
2018-05-18T21:27:42.924Z,3.37
2018-05-18T21:30:09.179Z,3.60
2018-05-18T21:32:35.312Z,4.17
2018-05-18T21:35:01.459Z,3.93
2018-05-18T21:37:27.613Z,4.20
2018-05-18T21:39:53.782Z,4.37
2018-05-18T21:42:20.022Z,4.20
2018-05-18T21:44:46.456Z,3.43
2018-05-18T21:47:12.632Z,3.50
2018-05-18T21:49:38.798Z,3.80
2018-05-18T21:52:05.679Z,3.63
2018-05-18T21:54:31.854Z,3.90
2018-05-18T21:56:58.038Z,3.97
2018-05-18T21:59:24.193Z,3.60
2018-05-18T22:01:50.375Z,3.90
2018-05-18T22:04:16.544Z,3.47
2018-05-18T22:06:42.694Z,3.80
2018-05-18T22:09:12.843Z,4.20
2018-05-18T22:11:39.018Z,3.70
2018-05-18T22:14:05.193Z,4.07
2018-05-18T22:16:31.369Z,3.53
2018-05-18T22:18:57.525Z,3.73
2018-05-18T22:21:23.666Z,4.17
2018-05-18T22:23:49.823Z,4.20
2018-05-18T22:26:15.958Z,3.97
2018-05-18T22:28:42.129Z,3.90
2018-05-18T22:31:08.304Z,4.17
2018-05-18T22:33:34.475Z,3.90
2018-05-18T22:36:00.632Z,3.80
2018-05-18T22:38:26.871Z,3.93
2018-05-18T22:40:53.056Z,3.87
2018-05-18T22:43:19.957Z,4.00
2018-05-18T22:45:46.154Z,3.47
2018-05-18T22:48:13.062Z,3.63
2018-05-18T22:50:39.277Z,3.83
2018-05-18T22:53:05.412Z,3.90
2018-05-18T22:55:31.619Z,3.80
2018-05-18T22:57:57.775Z,3.63
2018-05-18T23:00:25.774Z,3.40
2018-05-18T23:02:51.908Z,3.30
2018-05-18T23:05:18.092Z,3.93
2018-05-18T23:07:44.242Z,3.80
2018-05-18T23:10:10.459Z,3.87
2018-05-18T23:12:36.625Z,4.23
2018-05-18T23:15:02.810Z,3.50
2018-05-18T23:17:28.995Z,3.43
2018-05-18T23:19:55.162Z,3.57
2018-05-18T23:22:21.340Z,3.43
2018-05-18T23:24:47.574Z,3.80
2018-05-18T23:27:13.750Z,3.80
2018-05-18T23:29:39.938Z,3.90
2018-05-18T23:32:06.096Z,3.37
2018-05-18T23:34:32.255Z,3.60
2018-05-18T23:36:58.456Z,3.90
2018-05-18T23:39:24.611Z,3.93
2018-05-18T23:41:50.814Z,3.83
2018-05-18T23:44:18.478Z,3.87
2018-05-18T23:46:44.657Z,3.90
2018-05-18T23:49:10.843Z,3.90
2018-05-18T23:51:37.036Z,3.23
2018-05-18T23:54:03.187Z,3.87
2018-05-18T23:56:29.375Z,3.63
2018-05-18T23:58:55.582Z,3.33
